createdAt,value
2018-10-06T00:00:38.122Z,986.19
2018-10-06T00:01:45.014Z,986.23
2018-10-06T00:02:51.946Z,986.19
2018-10-06T00:03:58.837Z,986.22
2018-10-06T00:05:05.761Z,986.25
2018-10-06T00:06:12.594Z,986.25
2018-10-06T00:07:19.429Z,986.21
2018-10-06T00:08:26.187Z,986.21
2018-10-06T00:09:33.046Z,986.21
2018-10-06T00:10:39.952Z,986.24
2018-10-06T00:11:46.996Z,986.30
2018-10-06T00:12:53.850Z,986.28
2018-10-06T00:14:00.626Z,986.22
2018-10-06T00:15:07.494Z,986.26
2018-10-06T00:16:14.262Z,986.24
2018-10-06T00:17:21.110Z,986.28
2018-10-06T00:18:27.927Z,986.17
2018-10-06T00:19:34.892Z,986.29
2018-10-06T00:20:41.845Z,986.28
2018-10-06T00:21:48.683Z,986.24
2018-10-06T00:22:55.347Z,986.23
2018-10-06T00:24:02.523Z,986.24
2018-10-06T00:25:09.298Z,986.24
2018-10-06T00:26:16.278Z,986.25
2018-10-06T00:27:23.106Z,986.27
2018-10-06T00:28:29.804Z,986.23
2018-10-06T00:29:36.762Z,986.22
2018-10-06T00:30:43.547Z,986.24
2018-10-06T00:31:50.401Z,986.25
2018-10-06T00:32:57.164Z,986.23
2018-10-06T00:34:04.031Z,986.26
2018-10-06T00:35:11.011Z,986.27
2018-10-06T00:36:17.768Z,986.28
2018-10-06T00:37:24.638Z,986.23
2018-10-06T00:38:31.425Z,986.22
2018-10-06T00:39:38.509Z,986.16
2018-10-06T00:40:45.369Z,986.12
2018-10-06T00:41:52.209Z,986.16
2018-10-06T00:42:58.974Z,986.08
2018-10-06T00:44:05.842Z,986.14
2018-10-06T00:45:12.592Z,986.11
2018-10-06T00:46:19.463Z,986.09
2018-10-06T00:47:26.182Z,986.10
2018-10-06T00:48:33.000Z,986.18
2018-10-06T00:49:39.863Z,986.05
2018-10-06T00:50:46.581Z,986.05
2018-10-06T00:51:53.919Z,986.08
2018-10-06T00:53:00.679Z,986.11
2018-10-06T00:54:07.642Z,986.10
2018-10-06T00:55:14.418Z,986.03
2018-10-06T00:56:21.515Z,986.03
2018-10-06T00:57:28.242Z,986.07
2018-10-06T00:58:35.152Z,986.07
2018-10-06T00:59:41.878Z,986.04
2018-10-06T01:00:48.642Z,986.03
2018-10-06T01:01:55.394Z,985.98
2018-10-06T01:03:02.178Z,985.98
2018-10-06T01:04:08.943Z,985.95
2018-10-06T01:05:16.014Z,985.98
2018-10-06T01:06:22.790Z,986.03
2018-10-06T01:07:29.643Z,985.99
2018-10-06T01:08:37.042Z,985.95
2018-10-06T01:09:43.774Z,985.98
2018-10-06T01:10:50.912Z,986.00
2018-10-06T01:11:57.331Z,985.98
2018-10-06T01:13:04.038Z,985.91
2018-10-06T01:14:10.951Z,985.93
2018-10-06T01:15:18.249Z,985.93
2018-10-06T01:16:25.317Z,985.91
2018-10-06T01:17:31.957Z,985.84
2018-10-06T01:18:38.710Z,985.83
2018-10-06T01:19:45.368Z,985.79
2018-10-06T01:20:52.655Z,985.82
2018-10-06T01:21:59.342Z,985.77
2018-10-06T01:23:06.083Z,985.75
2018-10-06T01:24:13.250Z,985.73
2018-10-06T01:25:20.027Z,985.72
2018-10-06T01:26:26.760Z,985.77
2018-10-06T01:27:33.581Z,985.66
2018-10-06T01:28:40.395Z,985.66
2018-10-06T01:29:47.160Z,985.72
2018-10-06T01:30:53.979Z,985.68
2018-10-06T01:32:00.750Z,985.59
2018-10-06T01:33:07.499Z,985.61
2018-10-06T01:34:14.158Z,985.60
2018-10-06T01:35:21.119Z,985.59
2018-10-06T01:36:27.755Z,985.61
2018-10-06T01:37:34.458Z,985.55
2018-10-06T01:38:41.618Z,985.61
2018-10-06T01:39:48.377Z,985.65
2018-10-06T01:40:55.664Z,985.55
2018-10-06T01:42:02.784Z,985.56
2018-10-06T01:43:09.609Z,985.50
2018-10-06T01:44:16.886Z,985.60
2018-10-06T01:45:23.748Z,985.51
2018-10-06T01:46:30.505Z,985.52
2018-10-06T01:47:37.793Z,985.49
2018-10-06T01:48:44.540Z,985.47
2018-10-06T01:49:51.837Z,985.46
2018-10-06T01:50:58.597Z,985.52
2018-10-06T01:52:05.843Z,985.47
2018-10-06T01:53:12.571Z,985.46
2018-10-06T01:54:19.401Z,985.41
2018-10-06T01:55:26.166Z,985.41
2018-10-06T01:56:32.848Z,985.39
2018-10-06T01:57:39.715Z,985.35
2018-10-06T01:58:46.371Z,985.42
2018-10-06T01:59:53.643Z,985.36
2018-10-06T02:01:00.540Z,985.31
2018-10-06T02:02:07.364Z,985.35
2018-10-06T02:03:14.141Z,985.33
2018-10-06T02:04:21.124Z,985.25
2018-10-06T02:05:27.877Z,985.26
2018-10-06T02:06:34.787Z,985.20
2018-10-06T02:07:41.624Z,985.19
2018-10-06T02:08:48.878Z,985.21
2018-10-06T02:09:55.765Z,985.22
2018-10-06T02:11:02.529Z,985.23
2018-10-06T02:12:09.439Z,985.28
2018-10-06T02:13:16.129Z,985.25
2018-10-06T02:14:23.138Z,985.17
2018-10-06T02:15:29.892Z,985.18
2018-10-06T02:16:36.749Z,985.19
2018-10-06T02:17:43.634Z,985.08
2018-10-06T02:18:50.478Z,985.12
2018-10-06T02:19:57.359Z,985.09
2018-10-06T02:21:04.231Z,985.09
2018-10-06T02:22:11.048Z,985.07
2018-10-06T02:23:17.868Z,985.08
2018-10-06T02:24:24.657Z,985.01
2018-10-06T02:25:31.811Z,985.02
2018-10-06T02:26:38.688Z,984.96
2018-10-06T02:27:45.549Z,985.02
2018-10-06T02:28:52.372Z,985.04
2018-10-06T02:29:59.162Z,985.07
2018-10-06T02:31:06.143Z,985.02
2018-10-06T02:32:12.931Z,985.04
2018-10-06T02:33:19.794Z,984.97
2018-10-06T02:34:26.525Z,984.93
2018-10-06T02:35:33.301Z,984.93
2018-10-06T02:36:40.164Z,984.84
2018-10-06T02:37:46.955Z,984.88
2018-10-06T02:38:53.768Z,984.89
2018-10-06T02:40:00.576Z,984.89
2018-10-06T02:41:07.533Z,984.87
2018-10-06T02:42:14.298Z,984.83
2018-10-06T02:43:21.277Z,984.87
2018-10-06T02:44:27.998Z,984.81
2018-10-06T02:45:34.933Z,984.87
2018-10-06T02:46:41.666Z,984.79
2018-10-06T02:47:48.414Z,984.80
2018-10-06T02:48:55.209Z,984.76
2018-10-06T02:50:02.079Z,984.75
2018-10-06T02:51:09.046Z,984.77
2018-10-06T02:52:15.936Z,984.76
2018-10-06T02:53:22.795Z,984.84
2018-10-06T02:54:29.535Z,984.76
2018-10-06T02:55:36.413Z,984.73
2018-10-06T02:56:43.082Z,984.75
2018-10-06T02:57:50.470Z,984.78
2018-10-06T02:58:57.231Z,984.76
2018-10-06T03:00:04.177Z,984.77
2018-10-06T03:01:11.044Z,984.77
2018-10-06T03:02:17.813Z,984.72
2018-10-06T03:03:24.695Z,984.73
2018-10-06T03:04:31.557Z,984.69
2018-10-06T03:05:38.721Z,984.71
2018-10-06T03:06:45.721Z,984.71
2018-10-06T03:07:52.549Z,984.64
2018-10-06T03:08:59.540Z,984.69
2018-10-06T03:10:06.407Z,984.65
2018-10-06T03:11:13.265Z,984.69
2018-10-06T03:12:20.106Z,984.57
2018-10-06T03:13:26.900Z,984.59
2018-10-06T03:14:33.652Z,984.60
2018-10-06T03:15:40.531Z,984.61
2018-10-06T03:16:47.421Z,984.61
2018-10-06T03:17:54.216Z,984.69
2018-10-06T03:19:00.967Z,984.65
2018-10-06T03:20:07.891Z,984.64
2018-10-06T03:21:14.637Z,984.62
2018-10-06T03:22:21.524Z,984.63
2018-10-06T03:23:28.512Z,984.62
2018-10-06T03:24:35.466Z,984.67
2018-10-06T03:25:42.339Z,984.62
2018-10-06T03:26:49.210Z,984.66
2018-10-06T03:27:56.082Z,984.66
2018-10-06T03:29:03.052Z,984.63
2018-10-06T03:30:10.227Z,984.62
2018-10-06T03:31:16.978Z,984.66
2018-10-06T03:32:23.738Z,984.61
2018-10-06T03:33:30.539Z,984.58
2018-10-06T03:34:37.387Z,984.64
2018-10-06T03:35:44.145Z,984.58
2018-10-06T03:36:51.027Z,984.54
2018-10-06T03:37:57.831Z,984.54
2018-10-06T03:39:04.668Z,984.55
2018-10-06T03:40:11.408Z,984.55
2018-10-06T03:41:18.087Z,984.48
2018-10-06T03:42:24.931Z,984.46
2018-10-06T03:43:31.643Z,984.42
2018-10-06T03:44:38.574Z,984.46
2018-10-06T03:45:45.446Z,984.37
2018-10-06T03:46:52.268Z,984.44
2018-10-06T03:47:59.077Z,984.42
2018-10-06T03:49:05.949Z,984.40
2018-10-06T03:50:12.618Z,984.37
2018-10-06T03:51:19.361Z,984.48
2018-10-06T03:52:26.126Z,984.37
2018-10-06T03:53:32.915Z,984.41
2018-10-06T03:54:39.781Z,984.38
2018-10-06T03:55:46.529Z,984.38
2018-10-06T03:56:53.381Z,984.34
2018-10-06T03:58:00.222Z,984.35
2018-10-06T03:59:07.079Z,984.33
2018-10-06T04:00:13.995Z,984.38
2018-10-06T04:01:20.883Z,984.37
2018-10-06T04:02:27.734Z,984.34
2018-10-06T04:03:34.494Z,984.38
2018-10-06T04:04:41.285Z,984.37
2018-10-06T04:05:48.084Z,984.33
2018-10-06T04:06:54.905Z,984.27
2018-10-06T04:08:01.623Z,984.30
2018-10-06T04:09:08.543Z,984.27
2018-10-06T04:10:15.200Z,984.38
2018-10-06T04:11:22.014Z,984.30
2018-10-06T04:12:28.726Z,984.28
2018-10-06T04:13:35.568Z,984.24
2018-10-06T04:14:42.254Z,984.29
2018-10-06T04:15:49.020Z,984.25
2018-10-06T04:16:55.893Z,984.24
2018-10-06T04:18:02.648Z,984.19
2018-10-06T04:19:09.522Z,984.16
2018-10-06T04:20:16.368Z,984.19
2018-10-06T04:21:23.265Z,984.24
2018-10-06T04:22:29.967Z,984.21
2018-10-06T04:23:36.787Z,984.17
2018-10-06T04:24:43.555Z,984.18
2018-10-06T04:25:50.328Z,984.19
2018-10-06T04:26:57.030Z,984.12
2018-10-06T04:28:03.825Z,984.14
2018-10-06T04:29:10.706Z,984.16
2018-10-06T04:30:17.571Z,984.10
2018-10-06T04:31:24.438Z,984.13
2018-10-06T04:32:31.205Z,984.16
2018-10-06T04:33:38.067Z,984.15
2018-10-06T04:34:45.062Z,984.19
2018-10-06T04:35:52.025Z,984.21
2018-10-06T04:36:58.671Z,984.14
2018-10-06T04:38:05.520Z,984.14
2018-10-06T04:39:12.411Z,984.12
2018-10-06T04:40:19.272Z,984.21
2018-10-06T04:41:26.030Z,984.16
2018-10-06T04:42:33.209Z,984.13
2018-10-06T04:43:39.997Z,984.16
2018-10-06T04:44:46.752Z,984.08
2018-10-06T04:45:53.606Z,984.16
2018-10-06T04:47:00.362Z,984.10
2018-10-06T04:48:07.247Z,984.14
2018-10-06T04:49:14.039Z,984.11
2018-10-06T04:50:20.904Z,984.15
2018-10-06T04:51:27.749Z,984.09
2018-10-06T04:52:34.408Z,984.08
2018-10-06T04:53:41.685Z,984.19
2018-10-06T04:54:48.475Z,984.13
2018-10-06T04:55:55.371Z,984.03
2018-10-06T04:57:02.082Z,984.13
2018-10-06T04:58:09.110Z,984.05
2018-10-06T04:59:15.839Z,984.05
2018-10-06T05:00:22.790Z,984.08
2018-10-06T05:01:29.442Z,984.04
2018-10-06T05:02:36.740Z,984.04
2018-10-06T05:03:43.367Z,984.03
2018-10-06T05:04:50.718Z,983.99
2018-10-06T05:05:57.512Z,984.10
2018-10-06T05:07:04.216Z,984.08
2018-10-06T05:08:10.962Z,984.09
2018-10-06T05:09:17.625Z,984.09
2018-10-06T05:10:24.490Z,984.01
2018-10-06T05:11:31.139Z,984.06
2018-10-06T05:12:38.431Z,984.04
2018-10-06T05:13:45.354Z,984.01
2018-10-06T05:14:52.269Z,983.94
2018-10-06T05:15:59.049Z,984.04
2018-10-06T05:17:06.005Z,984.01
2018-10-06T05:18:12.623Z,984.01
2018-10-06T05:19:19.969Z,983.99
2018-10-06T05:20:26.704Z,984.05
2018-10-06T05:21:33.358Z,984.07
2018-10-06T05:22:40.661Z,984.05
2018-10-06T05:23:47.379Z,984.01
2018-10-06T05:24:54.189Z,984.00
2018-10-06T05:26:00.953Z,984.02
2018-10-06T05:27:07.803Z,984.07
2018-10-06T05:28:14.590Z,984.00
2018-10-06T05:29:21.671Z,984.04
2018-10-06T05:30:28.439Z,984.02
2018-10-06T05:31:35.280Z,983.98
2018-10-06T05:32:42.057Z,983.96
2018-10-06T05:33:48.814Z,983.93
2018-10-06T05:34:56.095Z,983.96
2018-10-06T05:36:02.742Z,983.91
2018-10-06T05:37:09.713Z,983.97
2018-10-06T05:38:16.471Z,983.98
2018-10-06T05:39:23.352Z,983.91
2018-10-06T05:40:30.246Z,983.99
2018-10-06T05:41:37.288Z,983.99
2018-10-06T05:42:44.006Z,983.95
2018-10-06T05:43:50.798Z,983.93
2018-10-06T05:44:57.592Z,983.93
2018-10-06T05:46:04.577Z,984.00
2018-10-06T05:47:11.210Z,983.93
2018-10-06T05:48:17.985Z,984.05
2018-10-06T05:49:24.833Z,984.03
2018-10-06T05:50:31.922Z,984.00
2018-10-06T05:51:38.664Z,984.02
2018-10-06T05:52:45.361Z,984.13
2018-10-06T05:53:52.532Z,984.03
2018-10-06T05:54:59.173Z,983.98
2018-10-06T05:56:06.486Z,984.01
2018-10-06T05:57:13.331Z,983.99
2018-10-06T05:58:20.122Z,983.93
2018-10-06T05:59:26.973Z,983.92
2018-10-06T06:00:33.726Z,983.98
2018-10-06T06:01:40.553Z,983.98
2018-10-06T06:02:47.154Z,983.97
2018-10-06T06:03:54.018Z,983.77
2018-10-06T06:05:00.799Z,983.86
2018-10-06T06:06:07.610Z,983.92
2018-10-06T06:07:14.421Z,983.90
2018-10-06T06:08:21.391Z,983.85
2018-10-06T06:09:28.048Z,983.95
2018-10-06T06:10:35.445Z,983.86
2018-10-06T06:11:42.196Z,983.88
2018-10-06T06:12:48.885Z,983.93
2018-10-06T06:13:55.619Z,983.90
2018-10-06T06:15:02.312Z,983.96
2018-10-06T06:16:09.246Z,983.84
2018-10-06T06:17:15.981Z,983.94
2018-10-06T06:18:22.995Z,984.01
2018-10-06T06:19:29.673Z,983.98
2018-10-06T06:20:36.502Z,983.98
2018-10-06T06:21:43.286Z,984.04
2018-10-06T06:22:50.195Z,984.05
2018-10-06T06:23:56.994Z,984.04
2018-10-06T06:25:03.583Z,984.09
2018-10-06T06:26:10.702Z,984.06
2018-10-06T06:27:17.417Z,984.13
2018-10-06T06:28:24.190Z,984.09
2018-10-06T06:29:30.864Z,984.09
2018-10-06T06:30:37.583Z,984.12
2018-10-06T06:31:44.383Z,984.13
2018-10-06T06:32:51.239Z,984.09
2018-10-06T06:33:57.998Z,984.17
2018-10-06T06:35:04.768Z,984.21
2018-10-06T06:36:11.467Z,984.09
2018-10-06T06:37:18.300Z,984.13
2018-10-06T06:38:25.152Z,984.19
2018-10-06T06:39:31.638Z,984.15
2018-10-06T06:40:38.907Z,984.18
2018-10-06T06:41:45.599Z,984.21
2018-10-06T06:42:52.724Z,984.15
2018-10-06T06:43:59.982Z,984.14
2018-10-06T06:45:06.894Z,984.15
2018-10-06T06:46:13.659Z,984.14
2018-10-06T06:47:20.690Z,984.10
2018-10-06T06:48:27.396Z,984.15
2018-10-06T06:49:34.046Z,984.10
2018-10-06T06:50:41.028Z,984.19
2018-10-06T06:51:47.817Z,984.15
2018-10-06T06:52:54.551Z,984.19
2018-10-06T06:54:01.258Z,984.20
2018-10-06T06:55:08.344Z,984.16
2018-10-06T06:56:14.973Z,984.19
2018-10-06T06:57:21.902Z,984.19
2018-10-06T06:58:28.568Z,984.18
2018-10-06T06:59:35.442Z,984.20
2018-10-06T07:00:42.201Z,984.17
2018-10-06T07:01:49.474Z,984.15
2018-10-06T07:02:56.666Z,984.17
2018-10-06T07:04:03.534Z,984.21
2018-10-06T07:05:10.400Z,984.20
2018-10-06T07:06:17.365Z,984.14
2018-10-06T07:07:24.339Z,984.12
2018-10-06T07:08:31.214Z,984.10
2018-10-06T07:09:38.080Z,984.21
2018-10-06T07:10:44.940Z,984.06
2018-10-06T07:11:51.794Z,984.08
2018-10-06T07:12:58.580Z,984.10
2018-10-06T07:14:05.518Z,984.12
2018-10-06T07:15:12.153Z,984.16
2018-10-06T07:16:18.983Z,984.13
2018-10-06T07:17:25.966Z,984.12
2018-10-06T07:18:32.890Z,984.10
2018-10-06T07:19:39.678Z,984.10
2018-10-06T07:20:46.384Z,984.13
2018-10-06T07:21:53.209Z,984.13
2018-10-06T07:22:59.974Z,984.10
2018-10-06T07:24:06.847Z,984.11
2018-10-06T07:25:13.720Z,984.15
2018-10-06T07:26:20.681Z,984.11
2018-10-06T07:27:27.580Z,984.11
2018-10-06T07:28:34.565Z,984.12
2018-10-06T07:29:41.277Z,984.13
2018-10-06T07:30:48.099Z,984.14
2018-10-06T07:31:55.623Z,984.06
2018-10-06T07:33:02.169Z,984.17
2018-10-06T07:34:08.942Z,984.06
2018-10-06T07:35:15.682Z,984.19
2018-10-06T07:36:22.487Z,984.14
2018-10-06T07:37:29.149Z,984.14
2018-10-06T07:38:36.386Z,984.17
2018-10-06T07:39:43.074Z,984.12
2018-10-06T07:40:50.343Z,984.14
2018-10-06T07:41:56.906Z,984.10
2018-10-06T07:43:04.310Z,984.09
2018-10-06T07:44:11.041Z,984.12
2018-10-06T07:45:18.125Z,984.09
2018-10-06T07:46:25.501Z,984.11
2018-10-06T07:47:32.232Z,984.07
2018-10-06T07:48:39.010Z,984.04
2018-10-06T07:49:45.710Z,984.08
2018-10-06T07:50:52.470Z,984.14
2018-10-06T07:51:59.050Z,984.16
2018-10-06T07:53:06.429Z,984.09
2018-10-06T07:54:13.071Z,984.18
2018-10-06T07:55:20.338Z,984.17
2018-10-06T07:56:27.006Z,984.15
2018-10-06T07:57:34.312Z,984.10
2018-10-06T07:58:40.953Z,984.11
2018-10-06T07:59:48.230Z,984.18
2018-10-06T08:00:55.090Z,984.20
2018-10-06T08:02:01.762Z,984.06
2018-10-06T08:03:08.531Z,984.10
2018-10-06T08:04:15.413Z,984.15
2018-10-06T08:05:22.362Z,984.11
2018-10-06T08:06:29.134Z,984.15
2018-10-06T08:07:35.923Z,984.06
2018-10-06T08:08:42.766Z,984.14
2018-10-06T08:09:49.628Z,984.05
2018-10-06T08:10:56.378Z,984.05
2018-10-06T08:12:03.061Z,984.06
2018-10-06T08:13:10.058Z,983.99
2018-10-06T08:14:16.734Z,984.01
2018-10-06T08:15:23.558Z,984.09
2018-10-06T08:16:30.287Z,984.03
2018-10-06T08:17:37.195Z,984.07
2018-10-06T08:18:43.866Z,984.10
2018-10-06T08:19:50.627Z,984.04
2018-10-06T08:20:57.595Z,984.00
2018-10-06T08:22:04.456Z,984.01
2018-10-06T08:23:11.347Z,984.04
2018-10-06T08:24:18.027Z,984.03
2018-10-06T08:25:24.740Z,984.04
2018-10-06T08:26:31.423Z,983.96
2018-10-06T08:27:38.311Z,983.90
2018-10-06T08:28:45.082Z,983.91
2018-10-06T08:29:52.039Z,983.87
2018-10-06T08:30:58.811Z,983.85
2018-10-06T08:32:05.684Z,983.84
2018-10-06T08:33:12.444Z,983.91
2018-10-06T08:34:19.274Z,983.87
2018-10-06T08:35:25.994Z,983.86
2018-10-06T08:36:32.733Z,983.86
2018-10-06T08:37:39.574Z,983.84
2018-10-06T08:38:46.210Z,983.81
2018-10-06T08:39:54.141Z,983.74
2018-10-06T08:41:00.300Z,983.77
2018-10-06T08:42:07.970Z,983.75
2018-10-06T08:43:14.746Z,983.69
2018-10-06T08:44:21.701Z,983.70
2018-10-06T08:45:28.317Z,983.69
2018-10-06T08:46:35.250Z,983.69
2018-10-06T08:47:41.898Z,983.61
2018-10-06T08:48:49.024Z,983.70
2018-10-06T08:49:56.262Z,983.66
2018-10-06T08:51:03.415Z,983.60
2018-10-06T08:52:10.698Z,983.59
2018-10-06T08:53:16.859Z,983.65
2018-10-06T08:54:24.231Z,983.53
2018-10-06T08:55:30.881Z,983.60
2018-10-06T08:56:38.182Z,983.60
2018-10-06T08:57:44.954Z,983.56
2018-10-06T08:58:52.197Z,983.58
2018-10-06T08:59:58.902Z,983.52
2018-10-06T09:01:06.139Z,983.58
2018-10-06T09:02:12.913Z,983.49
2018-10-06T09:03:20.201Z,983.57
2018-10-06T09:04:27.096Z,983.57
2018-10-06T09:05:33.813Z,983.62
2018-10-06T09:06:40.791Z,983.60
2018-10-06T09:07:47.571Z,983.59
2018-10-06T09:08:54.534Z,983.53
2018-10-06T09:10:01.395Z,983.56
2018-10-06T09:11:08.047Z,983.56
2018-10-06T09:12:14.723Z,983.56
2018-10-06T09:13:21.803Z,983.51
2018-10-06T09:14:28.643Z,983.53
2018-10-06T09:15:35.414Z,983.53
2018-10-06T09:16:42.074Z,983.56
2018-10-06T09:17:48.676Z,983.57
2018-10-06T09:18:55.842Z,983.57
2018-10-06T09:20:02.577Z,983.50
2018-10-06T09:21:09.337Z,983.56
2018-10-06T09:22:16.418Z,983.49
2018-10-06T09:23:23.707Z,983.51
2018-10-06T09:24:30.356Z,983.46
2018-10-06T09:25:37.618Z,983.50
2018-10-06T09:26:44.191Z,983.43
2018-10-06T09:27:51.462Z,983.46
2018-10-06T09:28:58.135Z,983.47
2018-10-06T09:30:05.419Z,983.43
2018-10-06T09:31:12.158Z,983.41
2018-10-06T09:32:19.306Z,983.39
2018-10-06T09:33:26.546Z,983.37
2018-10-06T09:34:33.114Z,983.38
2018-10-06T09:35:40.475Z,983.31
2018-10-06T09:36:47.210Z,983.32
2018-10-06T09:37:53.998Z,983.23
2018-10-06T09:39:00.667Z,983.35
2018-10-06T09:40:07.866Z,983.25
2018-10-06T09:41:14.580Z,983.14
2018-10-06T09:42:21.980Z,983.11
2018-10-06T09:43:28.429Z,983.09
2018-10-06T09:44:35.730Z,983.13
2018-10-06T09:45:42.321Z,983.15
2018-10-06T09:46:49.436Z,983.19
2018-10-06T09:47:56.515Z,983.10
2018-10-06T09:49:03.814Z,983.14
2018-10-06T09:50:10.470Z,983.15
2018-10-06T09:51:17.171Z,983.13
2018-10-06T09:52:24.282Z,983.16
2018-10-06T09:53:31.404Z,983.15
2018-10-06T09:54:38.652Z,983.21
2018-10-06T09:55:45.213Z,983.28
2018-10-06T09:56:52.686Z,983.31
2018-10-06T09:57:59.468Z,983.26
2018-10-06T09:59:06.345Z,983.27
2018-10-06T10:00:12.962Z,983.25
2018-10-06T10:01:20.295Z,983.22
2018-10-06T10:02:26.926Z,983.19
2018-10-06T10:03:33.691Z,983.29
2018-10-06T10:04:40.773Z,983.26
2018-10-06T10:05:47.461Z,983.25
2018-10-06T10:06:54.868Z,983.31
2018-10-06T10:08:01.613Z,983.27
2018-10-06T10:09:08.674Z,983.16
2018-10-06T10:10:15.067Z,983.15
2018-10-06T10:11:22.069Z,983.28
2018-10-06T10:12:28.872Z,983.24
2018-10-06T10:13:35.697Z,983.14
2018-10-06T10:14:42.528Z,983.06
2018-10-06T10:15:49.232Z,983.13
2018-10-06T10:16:55.859Z,983.11
2018-10-06T10:18:02.648Z,983.04
2018-10-06T10:19:09.344Z,983.08
2018-10-06T10:20:16.810Z,983.12
2018-10-06T10:21:23.573Z,983.12
2018-10-06T10:22:30.542Z,983.05
2018-10-06T10:23:37.222Z,983.06
2018-10-06T10:24:43.975Z,983.10
2018-10-06T10:25:50.733Z,983.02
2018-10-06T10:26:57.386Z,982.99
2018-10-06T10:28:04.667Z,983.08
2018-10-06T10:29:11.449Z,983.00
2018-10-06T10:30:18.194Z,983.04
2018-10-06T10:31:24.918Z,983.04
2018-10-06T10:32:31.723Z,982.98
2018-10-06T10:33:38.999Z,982.99
2018-10-06T10:34:46.202Z,982.91
2018-10-06T10:35:53.054Z,983.00
2018-10-06T10:36:59.818Z,983.05
2018-10-06T10:38:06.694Z,982.99
2018-10-06T10:39:13.422Z,982.97
2018-10-06T10:40:20.163Z,983.01
2018-10-06T10:41:27.070Z,982.91
2018-10-06T10:42:33.670Z,982.88
2018-10-06T10:43:40.807Z,982.92
2018-10-06T10:44:47.699Z,982.80
2018-10-06T10:45:54.436Z,982.80
2018-10-06T10:47:01.101Z,982.83
2018-10-06T10:48:08.434Z,982.79
2018-10-06T10:49:15.054Z,982.75
2018-10-06T10:50:22.347Z,982.77
2018-10-06T10:51:29.223Z,982.75
2018-10-06T10:52:36.046Z,982.76
2018-10-06T10:53:42.615Z,982.71
2018-10-06T10:54:50.014Z,982.76
2018-10-06T10:55:56.729Z,982.67
2018-10-06T10:57:03.939Z,982.67
2018-10-06T10:58:10.901Z,982.62
2018-10-06T10:59:17.542Z,982.66
2018-10-06T11:00:25.093Z,982.60
2018-10-06T11:01:31.717Z,982.54
2018-10-06T11:02:38.429Z,982.58
2018-10-06T11:03:45.107Z,982.54
2018-10-06T11:04:52.392Z,982.54
2018-10-06T11:05:59.128Z,982.51
2018-10-06T11:07:06.267Z,982.44
2018-10-06T11:08:12.931Z,982.46
2018-10-06T11:09:20.311Z,982.42
2018-10-06T11:10:27.092Z,982.45
2018-10-06T11:11:33.739Z,982.50
2018-10-06T11:12:40.533Z,982.35
2018-10-06T11:13:47.162Z,982.37
2018-10-06T11:14:54.531Z,982.37
2018-10-06T11:16:01.292Z,982.31
2018-10-06T11:17:08.630Z,982.34
2018-10-06T11:18:15.171Z,982.37
2018-10-06T11:19:22.344Z,982.32
2018-10-06T11:20:29.295Z,982.39
2018-10-06T11:21:36.168Z,982.33
2018-10-06T11:22:42.905Z,982.31
2018-10-06T11:23:49.681Z,982.35
2018-10-06T11:24:56.509Z,982.28
2018-10-06T11:26:03.115Z,982.28
2018-10-06T11:27:10.370Z,982.26
2018-10-06T11:28:17.055Z,982.29
2018-10-06T11:29:23.724Z,982.23
2018-10-06T11:30:30.293Z,982.18
2018-10-06T11:31:37.545Z,982.15
2018-10-06T11:32:44.202Z,982.06
2018-10-06T11:33:51.067Z,982.08
2018-10-06T11:34:57.741Z,982.07
2018-10-06T11:36:04.514Z,982.06
2018-10-06T11:37:11.179Z,981.98
2018-10-06T11:38:18.389Z,981.98
2018-10-06T11:39:25.530Z,981.98
2018-10-06T11:40:32.181Z,981.89
2018-10-06T11:41:39.451Z,981.93
2018-10-06T11:42:46.202Z,981.92
2018-10-06T11:43:52.990Z,981.93
2018-10-06T11:44:59.696Z,981.88
2018-10-06T11:46:06.531Z,981.88
2018-10-06T11:47:13.505Z,981.78
2018-10-06T11:48:20.285Z,981.78
2018-10-06T11:49:26.905Z,981.79
2018-10-06T11:50:34.102Z,981.69
2018-10-06T11:51:40.746Z,981.70
2018-10-06T11:52:47.398Z,981.71
2018-10-06T11:53:54.550Z,981.68
2018-10-06T11:55:01.753Z,981.66
2018-10-06T11:56:08.714Z,981.63
2018-10-06T11:57:15.402Z,981.57
2018-10-06T11:58:22.267Z,981.61
2018-10-06T11:59:28.895Z,981.53
2018-10-06T12:00:36.227Z,981.54
2018-10-06T12:01:42.849Z,981.51
2018-10-06T12:02:50.145Z,981.46
2018-10-06T12:03:56.950Z,981.47
2018-10-06T12:05:10.319Z,981.45
2018-10-06T12:06:10.278Z,981.46
2018-10-06T12:07:16.957Z,981.44
2018-10-06T12:08:23.809Z,981.41
2018-10-06T12:09:30.834Z,981.38
2018-10-06T12:10:37.630Z,981.46
2018-10-06T12:11:44.247Z,981.40
2018-10-06T12:12:51.551Z,981.37
2018-10-06T12:13:58.311Z,981.31
2018-10-06T12:15:05.374Z,981.26
2018-10-06T12:16:12.112Z,981.26
2018-10-06T12:17:19.406Z,981.21
2018-10-06T12:18:25.970Z,981.14
2018-10-06T12:19:33.159Z,981.21
2018-10-06T12:20:40.065Z,981.20
2018-10-06T12:21:46.711Z,981.15
2018-10-06T12:22:53.438Z,981.10
2018-10-06T12:24:00.313Z,981.15
2018-10-06T12:25:07.104Z,981.16
2018-10-06T12:26:13.813Z,981.10
2018-10-06T12:27:20.723Z,981.10
2018-10-06T12:28:27.368Z,981.12
2018-10-06T12:29:34.558Z,981.01
2018-10-06T12:30:41.077Z,981.08
2018-10-06T12:31:48.295Z,981.01
2018-10-06T12:32:55.563Z,981.03
2018-10-06T12:34:02.117Z,981.03
2018-10-06T12:35:09.342Z,980.91
2018-10-06T12:36:15.881Z,981.01
2018-10-06T12:37:23.122Z,980.95
2018-10-06T12:38:29.785Z,980.91
2018-10-06T12:39:36.973Z,980.93
2018-10-06T12:40:43.570Z,980.87
2018-10-06T12:41:50.923Z,980.88
2018-10-06T12:42:57.565Z,980.85
2018-10-06T12:44:04.851Z,980.83
2018-10-06T12:45:11.518Z,980.82
2018-10-06T12:46:18.705Z,980.79
2018-10-06T12:47:25.554Z,980.75
2018-10-06T12:48:32.324Z,980.88
2018-10-06T12:49:39.598Z,980.77
2018-10-06T12:50:46.217Z,980.81
2018-10-06T12:51:53.438Z,980.75
2018-10-06T12:53:05.013Z,980.75
2018-10-06T12:54:07.361Z,980.64
2018-10-06T12:55:14.133Z,980.69
2018-10-06T12:56:20.926Z,980.71
2018-10-06T12:57:27.556Z,980.70
2018-10-06T12:58:34.837Z,980.65
2018-10-06T12:59:41.431Z,980.69
2018-10-06T13:00:48.533Z,980.61
2018-10-06T13:01:55.757Z,980.64
2018-10-06T13:03:02.837Z,980.60
2018-10-06T13:04:10.086Z,980.53
2018-10-06T13:05:16.916Z,980.56
2018-10-06T13:06:23.777Z,980.64
2018-10-06T13:07:30.605Z,980.63
2018-10-06T13:08:38.032Z,980.60
2018-10-06T13:09:44.310Z,980.60
2018-10-06T13:10:51.752Z,980.56
2018-10-06T13:11:58.447Z,980.55
2018-10-06T13:13:05.876Z,980.58
2018-10-06T13:14:12.530Z,980.51
2018-10-06T13:15:19.760Z,980.47
2018-10-06T13:16:26.478Z,980.53
2018-10-06T13:17:33.326Z,980.52
2018-10-06T13:18:40.047Z,980.51
2018-10-06T13:19:46.663Z,980.40
2018-10-06T13:20:53.938Z,980.45
2018-10-06T13:22:01.771Z,980.50
2018-10-06T13:23:07.659Z,980.41
2018-10-06T13:24:14.450Z,980.44
2018-10-06T13:25:21.295Z,980.43
2018-10-06T13:26:27.966Z,980.43
2018-10-06T13:27:34.925Z,980.45
2018-10-06T13:28:41.694Z,980.40
2018-10-06T13:29:48.902Z,980.42
2018-10-06T13:30:55.658Z,980.43
2018-10-06T13:32:02.410Z,980.40
2018-10-06T13:33:09.677Z,980.39
2018-10-06T13:34:16.450Z,980.49
2018-10-06T13:35:23.212Z,980.42
2018-10-06T13:36:30.083Z,980.46
2018-10-06T13:37:36.855Z,980.48
2018-10-06T13:38:43.505Z,980.40
2018-10-06T13:39:50.888Z,980.43
2018-10-06T13:40:57.837Z,980.42
2018-10-06T13:42:04.542Z,980.42
2018-10-06T13:43:11.213Z,980.40
2018-10-06T13:44:18.512Z,980.43
2018-10-06T13:45:25.321Z,980.39
2018-10-06T13:46:32.001Z,980.44
2018-10-06T13:47:38.878Z,980.33
2018-10-06T13:48:45.601Z,980.43
2018-10-06T13:49:52.344Z,980.38
2018-10-06T13:50:59.382Z,980.39
2018-10-06T13:52:06.198Z,980.36
2018-10-06T13:53:13.083Z,980.39
2018-10-06T13:54:20.354Z,980.34